Penobscot, ME (04476)

1:13 PM EDT on June 03, 2015 (GMT -0400)
RainWise MKIII by Pierces Pond | | Change Station
CLOSE
Current Station
Personal Weather Station
Location: Penobscot, ME
Elevation: 89 ft
Nearby Weather Stations

Elev 89 ft 44.48 °N, 68.72 °W | Updated 18 seconds ago

Overcast
Overcast
52.2 °F
Feels Like 52.2 °F
N
9.0
Wind Variable Wind from NNE
Gusts 14.0 mph

Today
High -- | Low -- °F
--% Chance of Precip.
Yesterday
High -- | Low -- °F
Precip. -- in
4:52 AM 8:13 PM
Full, 99% visible
Pressure 30.23 in
Visibility 10.0 miles
Clouds Overcast 2700 ft
Dew Point 52 °F
Humidity 100%
Rainfall 0.00 in
Snow Depth Not available.
UV 3 out of 12
Pollen 7.00 out of 12
Air Quality Not available.
Flu Activity Regional
METAR KBHB 031655Z AUTO 36008G16KT 10SM OVC027 11/07 A3023 RMK AO1

More Conditions Fewer Conditions

Pressure 30.23 in
Visibility 10.0 miles
Clouds Overcast 2700 ft
Dew Point 52 °F
Humidity 100%
Rainfall 0.00 in
Snow Depth Not available.
UV 3 out of 12
Pollen 7.00 out of 12
Air Quality Not available.
Flu Activity Regional
METAR KBHB 031655Z AUTO 36008G16KT 10SM OVC027 11/07 A3023 RMK AO1

More Conditions Fewer Conditions

10-Day Weather Forecast

×

Almanac

Astronomy

Jun. 03, 2015 Rise Set
Actual Time
Civil Twilight
Nautical Twilight
Astronomical Twilight
Moon
Length of Visible Light
Length of Day
Tomorrow will be .
, % of the Moon is Illuminated

Today's Extremes

State Highs State Lows

Community

WunderPhotos

Upload Photos

1,826,256 photos uploaded!

WunderBlogs® & News

Nearby

Air Quality

  Air Quality AQ Index Pollutant
Not available.

Snow Depth

Station Depth Elevation

Earthquake Activity

City Distance Mag. Time & Date
Minimum magnitude displayed is 2.5.

Coastal Water Temperatures

Place Temperature

Stations

Nearby Weather Stations

Station Location Temp. Windchill Dew Point Humidity Wind Precip. Elev Updated Type